createdAt,value
2023-06-13T00:00:11.354Z,6.00
2023-06-13T00:01:11.270Z,5.80
2023-06-13T00:02:11.246Z,6.50
2023-06-13T00:03:11.292Z,6.20
2023-06-13T00:04:11.272Z,5.80
2023-06-13T00:05:11.244Z,5.90
2023-06-13T00:06:11.206Z,6.10
2023-06-13T00:07:11.236Z,6.10
2023-06-13T00:08:11.208Z,6.10
2023-06-13T00:09:11.655Z,6.20
2023-06-13T00:10:11.408Z,6.00
2023-06-13T00:11:11.130Z,7.70
2023-06-13T00:12:11.158Z,6.10
2023-06-13T00:13:11.139Z,5.90
2023-06-13T00:14:11.128Z,5.60
2023-06-13T00:15:11.088Z,5.80
2023-06-13T00:16:11.115Z,6.20
2023-06-13T00:17:11.071Z,5.80
2023-06-13T00:18:11.087Z,5.70
2023-06-13T00:19:11.104Z,5.70
2023-06-13T00:20:11.196Z,6.00
2023-06-13T00:21:11.029Z,5.80
2023-06-13T00:22:11.055Z,5.80
2023-06-13T00:23:11.006Z,5.80
2023-06-13T00:24:11.053Z,5.80
2023-06-13T00:25:10.990Z,5.80
2023-06-13T00:26:10.998Z,6.40
2023-06-13T00:27:10.958Z,6.00
2023-06-13T00:28:10.976Z,5.80
2023-06-13T00:29:10.951Z,6.50
2023-06-13T00:30:11.029Z,6.10
2023-06-13T00:31:10.943Z,6.00
2023-06-13T00:32:10.951Z,6.10
2023-06-13T00:33:10.969Z,6.10
2023-06-13T00:34:10.926Z,6.40
2023-06-13T00:35:10.875Z,6.00
2023-06-13T00:36:10.904Z,6.40
2023-06-13T00:37:10.920Z,6.20
2023-06-13T00:38:10.882Z,6.60
2023-06-13T00:39:10.833Z,5.90
2023-06-13T00:40:10.870Z,6.30
2023-06-13T00:41:10.812Z,6.10
2023-06-13T00:42:10.833Z,6.30
2023-06-13T00:43:10.788Z,6.30
2023-06-13T00:44:10.811Z,6.10
2023-06-13T00:45:10.777Z,6.10
2023-06-13T00:46:10.787Z,6.60
2023-06-13T00:47:10.790Z,6.10
2023-06-13T00:48:10.856Z,6.60
2023-06-13T00:49:10.724Z,6.40
2023-06-13T00:50:10.885Z,6.00
2023-06-13T00:51:10.700Z,6.70
2023-06-13T00:52:10.724Z,6.20
2023-06-13T00:53:10.718Z,6.00
2023-06-13T00:54:10.712Z,6.00
2023-06-13T00:55:10.658Z,6.20
2023-06-13T00:56:10.673Z,6.20
2023-06-13T00:57:10.667Z,6.10
2023-06-13T00:58:10.652Z,6.60
2023-06-13T00:59:10.632Z,6.80
2023-06-13T01:00:10.704Z,6.40
2023-06-13T01:01:10.590Z,6.20
2023-06-13T01:02:10.669Z,6.60
2023-06-13T01:03:10.646Z,7.30
2023-06-13T01:04:10.620Z,6.10
2023-06-13T01:05:10.555Z,6.30
2023-06-13T01:06:10.575Z,6.20
2023-06-13T01:07:10.536Z,6.50
2023-06-13T01:08:10.578Z,6.50
2023-06-13T01:09:10.505Z,6.60
2023-06-13T01:10:10.578Z,6.30
2023-06-13T01:11:10.509Z,6.50
2023-06-13T01:12:10.508Z,6.60
2023-06-13T01:13:10.469Z,7.10
2023-06-13T01:14:10.477Z,6.50
2023-06-13T01:15:10.446Z,6.60
2023-06-13T01:16:10.490Z,6.90
2023-06-13T01:17:10.420Z,7.20
2023-06-13T01:18:10.468Z,7.00
2023-06-13T01:19:10.432Z,6.50
2023-06-13T01:20:10.415Z,6.70
2023-06-13T01:21:10.378Z,7.10
2023-06-13T01:22:10.422Z,7.20
2023-06-13T01:23:10.353Z,6.70
2023-06-13T01:24:10.403Z,7.60
2023-06-13T01:25:10.336Z,7.40
2023-06-13T01:26:10.355Z,6.90
2023-06-13T01:27:10.314Z,7.40
2023-06-13T01:28:10.337Z,6.90
2023-06-13T01:29:10.302Z,7.50
2023-06-13T01:30:10.307Z,7.10
2023-06-13T01:31:10.292Z,6.80
2023-06-13T01:32:10.360Z,7.10
2023-06-13T01:33:10.286Z,7.30
2023-06-13T01:34:10.267Z,7.00
2023-06-13T01:35:10.229Z,7.20
2023-06-13T01:36:10.245Z,7.20
2023-06-13T01:37:10.204Z,8.20
2023-06-13T01:38:10.218Z,7.70
2023-06-13T01:39:10.200Z,7.20
2023-06-13T01:40:10.204Z,7.00
2023-06-13T01:41:10.173Z,7.00
2023-06-13T01:42:10.178Z,7.00
2023-06-13T01:43:10.178Z,7.60
2023-06-13T01:44:10.175Z,7.10
2023-06-13T01:45:10.133Z,7.10
2023-06-13T01:46:10.132Z,7.40
2023-06-13T01:47:10.116Z,6.60
2023-06-13T01:48:10.113Z,7.40
2023-06-13T01:49:10.085Z,7.70
2023-06-13T01:50:10.118Z,7.20
2023-06-13T01:51:10.056Z,7.20
2023-06-13T01:52:10.070Z,7.00
2023-06-13T01:53:10.055Z,7.30
2023-06-13T01:54:10.058Z,7.00
2023-06-13T01:55:10.016Z,7.30
2023-06-13T01:56:10.053Z,7.60
2023-06-13T01:57:10.017Z,7.20
2023-06-13T01:58:10.020Z,7.30
2023-06-13T01:59:09.987Z,7.10
2023-06-13T02:00:09.998Z,7.20
2023-06-13T02:01:09.995Z,7.50
2023-06-13T02:02:09.994Z,6.90
2023-06-13T02:03:10.003Z,7.00
2023-06-13T02:04:10.052Z,6.90
2023-06-13T02:05:09.965Z,7.30
2023-06-13T02:06:09.923Z,7.00
2023-06-13T02:07:10.019Z,7.20
2023-06-13T02:08:09.925Z,6.90
2023-06-13T02:09:09.869Z,7.30
2023-06-13T02:10:09.887Z,7.10
2023-06-13T02:11:09.856Z,6.60
2023-06-13T02:12:09.854Z,7.30
2023-06-13T02:13:09.866Z,7.20
2023-06-13T02:14:09.846Z,6.90
2023-06-13T02:15:09.801Z,7.10
2023-06-13T02:16:09.859Z,6.80
2023-06-13T02:17:09.791Z,7.10
2023-06-13T02:18:09.790Z,7.00
2023-06-13T02:19:09.786Z,7.00
2023-06-13T02:20:09.769Z,7.40
2023-06-13T02:21:09.745Z,7.80
2023-06-13T02:22:09.753Z,7.10
2023-06-13T02:23:09.716Z,7.10
2023-06-13T02:24:09.783Z,7.50
2023-06-13T02:25:09.709Z,7.50
2023-06-13T02:26:09.733Z,7.30
2023-06-13T02:27:09.691Z,7.40
2023-06-13T02:28:09.713Z,7.70
2023-06-13T02:29:09.663Z,7.50
2023-06-13T02:30:09.705Z,7.40
2023-06-13T02:31:09.642Z,7.70
2023-06-13T02:32:09.646Z,7.30
2023-06-13T02:33:09.710Z,7.30
2023-06-13T02:34:09.628Z,7.70
2023-06-13T02:35:09.596Z,7.80
2023-06-13T02:36:09.640Z,8.10
2023-06-13T02:37:09.579Z,8.20
2023-06-13T02:38:09.595Z,7.70
2023-06-13T02:39:09.565Z,7.90
2023-06-13T02:40:09.574Z,8.20
2023-06-13T02:41:09.565Z,8.40
2023-06-13T02:42:09.550Z,7.80
2023-06-13T02:43:09.502Z,8.00
2023-06-13T02:44:09.535Z,8.80
2023-06-13T02:45:09.496Z,7.80
2023-06-13T02:46:09.535Z,7.70
2023-06-13T02:47:09.500Z,7.90
2023-06-13T02:48:09.544Z,7.80
2023-06-13T02:49:09.445Z,8.80
2023-06-13T02:50:09.460Z,8.10
2023-06-13T02:51:09.433Z,7.70
2023-06-13T02:52:09.444Z,8.00
2023-06-13T02:53:09.434Z,7.80
2023-06-13T02:54:09.442Z,8.00
2023-06-13T02:55:09.395Z,8.50
2023-06-13T02:56:09.394Z,7.60
2023-06-13T02:57:09.360Z,7.90
2023-06-13T02:58:11.075Z,7.70
2023-06-13T02:59:09.362Z,7.90
2023-06-13T03:00:09.354Z,8.00
2023-06-13T03:01:09.415Z,8.10
2023-06-13T03:02:09.346Z,8.10
2023-06-13T03:03:09.368Z,7.70
2023-06-13T03:04:09.399Z,7.80
2023-06-13T03:05:09.286Z,8.00
2023-06-13T03:06:09.296Z,8.10
2023-06-13T03:07:09.256Z,7.70
2023-06-13T03:08:09.274Z,8.40
2023-06-13T03:09:09.295Z,8.00
2023-06-13T03:10:09.271Z,8.20
2023-06-13T03:11:09.232Z,8.10
2023-06-13T03:12:09.236Z,8.40
2023-06-13T03:13:09.196Z,8.10
2023-06-13T03:14:09.201Z,8.10
2023-06-13T03:15:09.180Z,8.30
2023-06-13T03:16:09.260Z,8.50
2023-06-13T03:17:09.166Z,8.20
2023-06-13T03:18:09.173Z,7.80
2023-06-13T03:19:09.127Z,8.10
2023-06-13T03:20:09.190Z,8.10
2023-06-13T03:21:09.111Z,7.80
2023-06-13T03:22:09.162Z,8.10
2023-06-13T03:23:09.096Z,8.10
2023-06-13T03:24:09.180Z,7.90
2023-06-13T03:25:09.083Z,7.50
2023-06-13T03:26:09.074Z,7.60
2023-06-13T03:27:09.199Z,7.80
2023-06-13T03:28:09.084Z,8.20
2023-06-13T03:29:09.019Z,8.10
2023-06-13T03:30:09.124Z,7.70
2023-06-13T03:31:09.102Z,7.80
2023-06-13T03:32:09.033Z,8.40
2023-06-13T03:33:09.061Z,8.00
2023-06-13T03:34:08.989Z,8.20
2023-06-13T03:35:08.977Z,7.80
2023-06-13T03:36:09.073Z,7.70
2023-06-13T03:37:08.951Z,8.70
2023-06-13T03:38:08.962Z,8.00
2023-06-13T03:39:08.933Z,8.50
2023-06-13T03:40:08.947Z,8.00
2023-06-13T03:41:08.911Z,8.90
2023-06-13T03:42:08.926Z,8.30
2023-06-13T03:43:08.882Z,7.80
2023-06-13T03:44:08.911Z,8.10
2023-06-13T03:45:08.853Z,8.00
2023-06-13T03:46:13.405Z,8.10
2023-06-13T03:47:08.871Z,7.70
2023-06-13T03:48:08.974Z,7.70
2023-06-13T03:49:08.945Z,8.00
2023-06-13T03:50:08.849Z,7.90
2023-06-13T03:51:08.796Z,8.20
2023-06-13T03:52:08.819Z,8.20
2023-06-13T03:53:08.766Z,7.60
2023-06-13T03:54:08.782Z,7.90
2023-06-13T03:55:09.721Z,8.50
2023-06-13T03:56:08.792Z,7.70
2023-06-13T03:57:08.799Z,7.80
2023-06-13T03:58:08.748Z,7.50
2023-06-13T03:59:08.714Z,7.70
2023-06-13T04:00:08.725Z,8.30
2023-06-13T04:01:08.869Z,8.20
2023-06-13T04:02:08.715Z,9.00
2023-06-13T04:03:08.835Z,7.80
2023-06-13T04:04:08.685Z,7.80
2023-06-13T04:05:08.656Z,7.90
2023-06-13T04:06:08.677Z,8.10
2023-06-13T04:07:08.731Z,7.80
2023-06-13T04:08:08.634Z,8.40
2023-06-13T04:09:08.608Z,8.10
2023-06-13T04:10:08.634Z,8.00
2023-06-13T04:11:08.617Z,7.60
2023-06-13T04:12:08.595Z,8.80
2023-06-13T04:13:08.710Z,8.00
2023-06-13T04:14:08.588Z,7.80
2023-06-13T04:15:08.554Z,7.90
2023-06-13T04:16:08.594Z,7.80
2023-06-13T04:17:08.532Z,7.80
2023-06-13T04:18:08.624Z,7.90
2023-06-13T04:19:08.511Z,7.90
2023-06-13T04:20:08.521Z,8.10
2023-06-13T04:21:08.520Z,8.10
2023-06-13T04:22:08.489Z,8.10
2023-06-13T04:23:08.482Z,7.80
2023-06-13T04:24:08.479Z,8.40
2023-06-13T04:25:08.473Z,9.30
2023-06-13T04:26:08.433Z,8.00
2023-06-13T04:27:08.475Z,8.80
2023-06-13T04:28:08.492Z,8.10
2023-06-13T04:29:08.413Z,8.50
2023-06-13T04:30:08.553Z,8.30
2023-06-13T04:31:08.400Z,8.40
2023-06-13T04:32:08.462Z,7.90
2023-06-13T04:33:08.426Z,8.40
2023-06-13T04:34:08.389Z,8.30
2023-06-13T04:35:08.379Z,8.40
2023-06-13T04:36:08.315Z,8.20
2023-06-13T04:37:08.338Z,8.00
2023-06-13T04:38:08.302Z,7.80
2023-06-13T04:39:08.310Z,7.70
2023-06-13T04:40:08.293Z,8.00
2023-06-13T04:41:08.310Z,8.00
2023-06-13T04:42:08.267Z,8.00
2023-06-13T04:43:08.274Z,8.20
2023-06-13T04:44:08.233Z,8.00
2023-06-13T04:45:08.263Z,8.40
2023-06-13T04:46:10.110Z,8.50
2023-06-13T04:47:08.251Z,8.00
2023-06-13T04:48:08.214Z,9.90
2023-06-13T04:49:08.208Z,8.20
2023-06-13T04:50:08.180Z,8.60
2023-06-13T04:51:08.178Z,8.30
2023-06-13T04:52:08.145Z,7.90
2023-06-13T04:53:08.174Z,8.40
2023-06-13T04:54:08.120Z,7.80
2023-06-13T04:55:08.142Z,8.30
2023-06-13T04:56:08.103Z,7.90
2023-06-13T04:57:08.121Z,8.10
2023-06-13T04:58:08.117Z,8.30
2023-06-13T04:59:08.094Z,8.20
2023-06-13T05:00:08.095Z,7.30
2023-06-13T05:01:08.070Z,8.00
2023-06-13T05:02:08.044Z,7.80
2023-06-13T05:03:08.145Z,8.20
2023-06-13T05:04:08.167Z,8.00
2023-06-13T05:05:08.030Z,8.20
2023-06-13T05:06:08.019Z,8.20
2023-06-13T05:07:08.009Z,7.90
2023-06-13T05:08:07.976Z,8.60
2023-06-13T05:09:08.000Z,7.50
2023-06-13T05:10:11.189Z,8.20
2023-06-13T05:11:07.971Z,8.20
2023-06-13T05:12:07.939Z,7.90
2023-06-13T05:13:07.953Z,7.90
2023-06-13T05:14:07.933Z,7.60
2023-06-13T05:15:07.924Z,7.90
2023-06-13T05:16:07.921Z,7.90
2023-06-13T05:17:07.923Z,7.90
2023-06-13T05:18:08.004Z,7.60
2023-06-13T05:19:07.886Z,7.70
2023-06-13T05:20:07.853Z,7.60
2023-06-13T05:21:07.893Z,7.70
2023-06-13T05:22:07.846Z,7.80
2023-06-13T05:23:07.850Z,8.10
2023-06-13T05:24:07.833Z,8.20
2023-06-13T05:25:07.860Z,7.30
2023-06-13T05:26:07.791Z,8.40
2023-06-13T05:27:07.825Z,7.90
2023-06-13T05:28:07.769Z,7.40
2023-06-13T05:29:07.783Z,7.80
2023-06-13T05:30:07.750Z,7.10
2023-06-13T05:31:07.997Z,7.30
2023-06-13T05:32:07.748Z,8.10
2023-06-13T05:33:07.858Z,8.10
2023-06-13T05:34:07.703Z,7.60
2023-06-13T05:35:07.725Z,7.40
2023-06-13T05:36:07.684Z,7.60
2023-06-13T05:37:07.702Z,7.70
2023-06-13T05:38:07.681Z,7.60
2023-06-13T05:39:07.671Z,7.10
2023-06-13T05:40:07.654Z,8.00
2023-06-13T05:41:07.651Z,7.80
2023-06-13T05:42:07.640Z,7.50
2023-06-13T05:43:07.639Z,7.10
2023-06-13T05:44:07.621Z,7.50
2023-06-13T05:45:07.636Z,8.10
2023-06-13T05:46:07.575Z,7.40
2023-06-13T05:47:07.596Z,7.10
2023-06-13T05:48:07.662Z,7.50
2023-06-13T05:49:07.586Z,7.20
2023-06-13T05:50:07.572Z,7.40
2023-06-13T05:51:07.547Z,7.50
2023-06-13T05:52:07.554Z,7.30
2023-06-13T05:53:07.538Z,7.60
2023-06-13T05:54:07.495Z,7.40
2023-06-13T05:55:07.532Z,7.10
2023-06-13T05:56:07.491Z,7.30
2023-06-13T05:57:07.493Z,7.50
2023-06-13T05:58:07.443Z,7.50
2023-06-13T05:59:07.464Z,7.00
2023-06-13T06:00:07.536Z,7.70
2023-06-13T06:01:07.449Z,7.40
2023-06-13T06:02:07.423Z,7.90
2023-06-13T06:03:07.595Z,7.00
2023-06-13T06:04:07.460Z,7.40
2023-06-13T06:05:07.406Z,7.00
2023-06-13T06:06:07.374Z,7.60
2023-06-13T06:07:07.421Z,7.00
2023-06-13T06:08:07.350Z,7.00
2023-06-13T06:09:07.361Z,7.40
2023-06-13T06:10:07.329Z,7.00
2023-06-13T06:11:07.325Z,7.50
2023-06-13T06:12:07.333Z,7.20
2023-06-13T06:13:07.313Z,7.10
2023-06-13T06:14:07.280Z,6.60
2023-06-13T06:15:07.291Z,7.10
2023-06-13T06:16:07.260Z,6.60
2023-06-13T06:17:07.262Z,7.10
2023-06-13T06:18:07.309Z,6.80
2023-06-13T06:19:07.238Z,6.70
2023-06-13T06:20:07.217Z,6.70
2023-06-13T06:21:07.221Z,6.90
2023-06-13T06:22:07.216Z,6.60
2023-06-13T06:23:07.203Z,7.00
2023-06-13T06:24:07.212Z,6.90
2023-06-13T06:25:07.173Z,6.70
2023-06-13T06:26:07.148Z,6.80
2023-06-13T06:27:07.159Z,6.50
2023-06-13T06:28:07.118Z,6.70
2023-06-13T06:29:07.158Z,6.50
2023-06-13T06:30:07.104Z,7.10
2023-06-13T06:31:07.129Z,6.70
2023-06-13T06:32:07.112Z,7.30
2023-06-13T06:33:07.129Z,6.60
2023-06-13T06:34:07.071Z,6.50
2023-06-13T06:35:07.091Z,6.30
2023-06-13T06:36:07.059Z,6.60
2023-06-13T06:37:07.092Z,6.30
2023-06-13T06:38:07.024Z,6.10
2023-06-13T06:39:07.047Z,6.70
2023-06-13T06:40:07.012Z,6.20
2023-06-13T06:41:07.024Z,6.40
2023-06-13T06:42:06.979Z,6.10
2023-06-13T06:43:06.988Z,6.50
2023-06-13T06:44:06.955Z,6.40
2023-06-13T06:45:07.004Z,6.30
2023-06-13T06:46:09.422Z,7.00
2023-06-13T06:47:06.963Z,6.30
2023-06-13T06:48:06.994Z,6.10
2023-06-13T06:49:06.930Z,5.90
2023-06-13T06:50:06.918Z,6.30
2023-06-13T06:51:06.916Z,6.40
2023-06-13T06:52:06.933Z,6.00
2023-06-13T06:53:06.897Z,6.60
2023-06-13T06:54:06.855Z,5.60
2023-06-13T06:55:06.859Z,6.00
2023-06-13T06:56:06.828Z,6.70
2023-06-13T06:57:06.835Z,5.70
2023-06-13T06:58:06.821Z,5.70
2023-06-13T06:59:06.853Z,5.80
2023-06-13T07:00:06.849Z,6.00
2023-06-13T07:01:06.823Z,5.70
2023-06-13T07:02:06.812Z,5.80
2023-06-13T07:03:06.833Z,5.70
2023-06-13T07:04:06.804Z,6.10
2023-06-13T07:05:06.767Z,5.90
2023-06-13T07:06:06.725Z,5.80
2023-06-13T07:07:06.740Z,5.80
2023-06-13T07:08:06.723Z,5.80
2023-06-13T07:09:06.730Z,5.60
2023-06-13T07:10:06.689Z,5.60
2023-06-13T07:11:06.694Z,5.80
2023-06-13T07:12:06.671Z,5.20
2023-06-13T07:13:06.686Z,5.70
2023-06-13T07:14:06.636Z,5.90
2023-06-13T07:15:06.703Z,5.60
2023-06-13T07:16:06.626Z,5.10
2023-06-13T07:17:06.635Z,5.50
2023-06-13T07:18:06.658Z,5.60
2023-06-13T07:19:07.318Z,5.60
2023-06-13T07:20:06.817Z,5.50
2023-06-13T07:21:06.606Z,5.80
2023-06-13T07:22:06.763Z,5.80
2023-06-13T07:23:06.563Z,5.60
2023-06-13T07:24:08.095Z,5.60
2023-06-13T07:25:06.562Z,6.10
2023-06-13T07:26:06.525Z,5.50
2023-06-13T07:27:06.529Z,5.30
2023-06-13T07:28:06.485Z,5.70
2023-06-13T07:29:06.525Z,5.50
2023-06-13T07:30:06.464Z,5.50
2023-06-13T07:31:06.489Z,5.30
2023-06-13T07:32:06.509Z,5.40
2023-06-13T07:33:06.484Z,5.10
2023-06-13T07:34:12.160Z,5.30
2023-06-13T07:35:07.394Z,5.30
2023-06-13T07:36:06.404Z,5.20
2023-06-13T07:37:06.419Z,5.80
2023-06-13T07:38:06.397Z,5.50
2023-06-13T07:39:06.411Z,5.30
2023-06-13T07:40:06.419Z,5.20
2023-06-13T07:41:06.372Z,5.50
2023-06-13T07:42:06.385Z,5.80
2023-06-13T07:43:06.359Z,5.50
2023-06-13T07:44:06.316Z,5.60
2023-06-13T07:45:06.466Z,5.20
2023-06-13T07:46:06.348Z,5.20
2023-06-13T07:47:06.314Z,5.70
2023-06-13T07:48:06.401Z,5.10
2023-06-13T07:49:06.314Z,5.40
2023-06-13T07:50:06.270Z,5.30
2023-06-13T07:51:06.297Z,5.40
2023-06-13T07:52:06.249Z,5.20
2023-06-13T07:53:06.256Z,5.30
2023-06-13T07:54:06.256Z,5.70
2023-06-13T07:55:06.253Z,5.40
2023-06-13T07:56:06.189Z,5.20
2023-06-13T07:57:25.534Z,5.40
2023-06-13T07:58:09.192Z,5.50
2023-06-13T07:59:06.188Z,6.00
2023-06-13T08:00:06.166Z,5.20
2023-06-13T08:01:06.196Z,5.30
2023-06-13T08:02:06.163Z,5.40
2023-06-13T08:03:06.254Z,5.00
2023-06-13T08:04:06.222Z,5.70
2023-06-13T08:05:06.161Z,5.20
2023-06-13T08:06:06.096Z,5.00
2023-06-13T08:07:06.109Z,5.20
2023-06-13T08:08:06.065Z,5.70
2023-06-13T08:09:06.086Z,5.00
2023-06-13T08:10:06.055Z,5.10
2023-06-13T08:11:06.071Z,5.10
2023-06-13T08:12:06.028Z,5.30
2023-06-13T08:13:06.077Z,5.20
2023-06-13T08:14:06.022Z,5.20
2023-06-13T08:15:06.083Z,5.80
2023-06-13T08:16:06.096Z,5.30
2023-06-13T08:17:06.040Z,5.10
2023-06-13T08:18:06.114Z,5.20
2023-06-13T08:19:06.005Z,5.20
2023-06-13T08:20:05.969Z,4.60
2023-06-13T08:21:06.028Z,5.10
2023-06-13T08:22:05.925Z,5.10
2023-06-13T08:23:05.986Z,6.50
2023-06-13T08:24:06.000Z,4.90
2023-06-13T08:25:05.976Z,5.10
2023-06-13T08:26:05.956Z,4.80
2023-06-13T08:27:05.897Z,4.90
2023-06-13T08:28:05.872Z,4.50
2023-06-13T08:29:05.901Z,4.80
2023-06-13T08:30:05.888Z,4.70
2023-06-13T08:31:22.652Z,4.80
2023-06-13T08:32:05.844Z,4.80
2023-06-13T08:33:05.933Z,4.60
2023-06-13T08:34:10.375Z,4.70
2023-06-13T08:35:05.830Z,4.90
2023-06-13T08:36:15.771Z,4.80
2023-06-13T08:37:05.811Z,5.20
2023-06-13T08:38:05.780Z,4.80
2023-06-13T08:39:05.745Z,5.00
2023-06-13T08:40:05.842Z,4.70
2023-06-13T08:41:05.728Z,4.70
2023-06-13T08:42:05.740Z,4.80
2023-06-13T08:43:05.710Z,4.50
2023-06-13T08:44:05.735Z,5.10
2023-06-13T08:45:05.683Z,4.90
2023-06-13T08:46:06.509Z,5.00
2023-06-13T08:47:05.690Z,5.20
2023-06-13T08:48:05.854Z,4.70
2023-06-13T08:49:05.654Z,5.10
2023-06-13T08:50:05.676Z,5.10
2023-06-13T08:51:05.645Z,4.60
2023-06-13T08:52:05.682Z,5.40
2023-06-13T08:53:05.604Z,4.80
2023-06-13T08:54:05.613Z,4.90
2023-06-13T08:55:37.811Z,4.80
2023-06-13T08:56:05.721Z,4.70
2023-06-13T08:57:05.663Z,4.70
2023-06-13T08:58:05.630Z,4.60
2023-06-13T08:59:05.539Z,4.70
2023-06-13T09:00:05.546Z,4.70
2023-06-13T09:01:05.564Z,4.70
2023-06-13T09:02:05.538Z,4.80
2023-06-13T09:03:05.754Z,5.30
2023-06-13T09:04:05.553Z,4.90
2023-06-13T09:05:05.466Z,4.50
2023-06-13T09:06:05.505Z,5.00
2023-06-13T09:07:05.507Z,5.90
2023-06-13T09:08:28.041Z,4.80
2023-06-13T09:09:05.428Z,4.60
2023-06-13T09:10:05.444Z,5.00
2023-06-13T09:11:05.414Z,4.30
2023-06-13T09:12:05.544Z,5.00
2023-06-13T09:13:05.404Z,5.00
2023-06-13T09:14:05.400Z,4.40
2023-06-13T09:15:05.454Z,4.60
2023-06-13T09:16:05.378Z,4.80
2023-06-13T09:17:05.415Z,4.80
2023-06-13T09:18:05.377Z,4.80
2023-06-13T09:19:05.362Z,5.00
2023-06-13T09:20:05.339Z,4.50
2023-06-13T09:21:05.295Z,5.00
2023-06-13T09:22:05.306Z,4.60
2023-06-13T09:23:05.341Z,4.50
2023-06-13T09:24:05.331Z,4.60
2023-06-13T09:25:05.336Z,4.30
2023-06-13T09:26:05.274Z,4.50
2023-06-13T09:27:05.230Z,4.70
2023-06-13T09:28:05.250Z,4.70
2023-06-13T09:29:11.978Z,4.60
2023-06-13T09:30:05.231Z,4.90
2023-06-13T09:31:05.209Z,4.90
2023-06-13T09:32:05.201Z,4.50
2023-06-13T09:33:05.202Z,4.30
2023-06-13T09:34:05.197Z,4.90
2023-06-13T09:35:05.217Z,4.60
2023-06-13T09:36:06.364Z,4.30
2023-06-13T09:37:05.139Z,4.40
2023-06-13T09:38:05.140Z,4.20
2023-06-13T09:39:05.105Z,4.60
2023-06-13T09:40:13.816Z,4.50
2023-06-13T09:41:05.114Z,4.30
2023-06-13T09:42:05.103Z,4.40
2023-06-13T09:43:05.725Z,4.20
2023-06-13T09:44:05.073Z,4.20
2023-06-13T09:45:05.039Z,4.70
2023-06-13T09:46:05.097Z,4.50
2023-06-13T09:47:05.030Z,4.40
2023-06-13T09:48:05.075Z,4.00
2023-06-13T09:49:05.009Z,4.40
2023-06-13T09:50:05.032Z,4.30
2023-06-13T09:51:04.984Z,4.30
2023-06-13T09:52:04.999Z,4.10
2023-06-13T09:53:04.963Z,4.00
2023-06-13T09:54:04.969Z,5.00
2023-06-13T09:55:04.941Z,4.40
2023-06-13T09:56:04.966Z,4.60
2023-06-13T09:57:04.925Z,4.60
2023-06-13T09:59:04.893Z,4.40
2023-06-13T10:00:04.898Z,4.40
2023-06-13T10:01:05.001Z,4.20
2023-06-13T10:02:05.078Z,4.30
2023-06-13T10:03:16.716Z,4.20
2023-06-13T10:04:04.886Z,4.60
2023-06-13T10:05:04.899Z,4.00
2023-06-13T10:06:04.978Z,4.40
2023-06-13T10:07:04.801Z,4.10
2023-06-13T10:08:05.333Z,4.30
2023-06-13T10:09:04.830Z,4.60
2023-06-13T10:10:04.867Z,4.80
2023-06-13T10:11:04.764Z,4.10
2023-06-13T10:12:04.789Z,4.50
2023-06-13T10:13:04.762Z,4.30
2023-06-13T10:14:06.168Z,4.40
2023-06-13T10:15:04.772Z,4.20
2023-06-13T10:16:04.772Z,4.30
2023-06-13T10:17:09.269Z,4.20
2023-06-13T10:18:04.748Z,4.00
2023-06-13T10:19:04.693Z,4.30
2023-06-13T10:20:04.688Z,4.30
2023-06-13T10:21:04.674Z,4.20
2023-06-13T10:22:04.669Z,4.20
2023-06-13T10:23:04.651Z,4.20
2023-06-13T10:24:04.677Z,4.20
2023-06-13T10:25:04.621Z,4.20
2023-06-13T10:26:05.731Z,4.80
2023-06-13T10:27:04.601Z,4.40
2023-06-13T10:28:08.116Z,4.30
2023-06-13T10:29:04.652Z,4.10
2023-06-13T10:30:04.593Z,4.60
2023-06-13T10:31:04.562Z,4.10
2023-06-13T10:32:04.661Z,4.00
2023-06-13T10:33:04.563Z,4.30
2023-06-13T10:34:04.576Z,4.30
2023-06-13T10:35:04.615Z,4.20
2023-06-13T10:36:04.563Z,4.70
2023-06-13T10:37:07.178Z,4.30
2023-06-13T10:38:04.553Z,4.20
2023-06-13T10:39:04.476Z,4.10
2023-06-13T10:40:04.768Z,4.30
2023-06-13T10:41:04.466Z,4.30
2023-06-13T10:42:04.502Z,4.20
2023-06-13T10:43:04.466Z,4.00
2023-06-13T10:44:04.453Z,4.30
2023-06-13T10:45:04.534Z,4.20
2023-06-13T10:46:04.512Z,4.30
2023-06-13T10:47:04.391Z,4.30
2023-06-13T10:48:04.464Z,4.00
2023-06-13T10:49:04.381Z,4.40
2023-06-13T10:50:04.391Z,4.30
2023-06-13T10:51:04.381Z,4.20
2023-06-13T10:52:04.378Z,4.00
2023-06-13T10:53:04.340Z,4.30
2023-06-13T10:54:04.368Z,4.00
2023-06-13T10:55:04.332Z,4.10
2023-06-13T10:56:04.325Z,4.40
2023-06-13T10:57:04.319Z,4.60
2023-06-13T10:58:04.321Z,4.60
2023-06-13T10:59:04.276Z,4.20
2023-06-13T11:00:04.301Z,4.40
2023-06-13T11:01:04.330Z,4.00
2023-06-13T11:02:04.267Z,4.30
2023-06-13T11:03:04.314Z,4.50
2023-06-13T11:04:04.341Z,4.10
2023-06-13T11:05:04.220Z,4.20
2023-06-13T11:06:04.224Z,4.80
2023-06-13T11:07:04.241Z,4.30
2023-06-13T11:08:04.232Z,4.20
2023-06-13T11:09:04.197Z,4.20
2023-06-13T11:10:04.203Z,4.30
2023-06-13T11:11:04.159Z,4.30
2023-06-13T11:12:04.214Z,4.50
2023-06-13T11:13:04.144Z,4.20
2023-06-13T11:14:04.157Z,4.30
2023-06-13T11:15:04.153Z,4.20
2023-06-13T11:16:04.122Z,4.20
2023-06-13T11:17:04.292Z,4.10
2023-06-13T11:18:04.171Z,4.80
2023-06-13T11:19:04.084Z,4.50
2023-06-13T11:20:04.099Z,4.10
2023-06-13T11:21:04.053Z,4.40
2023-06-13T11:22:04.159Z,4.10
2023-06-13T11:23:04.023Z,4.30
2023-06-13T11:24:04.064Z,4.60
2023-06-13T11:25:04.032Z,4.00
2023-06-13T11:26:04.028Z,4.40
2023-06-13T11:27:03.989Z,4.40
2023-06-13T11:28:04.014Z,4.30
2023-06-13T11:29:03.982Z,4.40
2023-06-13T11:30:03.972Z,4.30
2023-06-13T11:31:04.027Z,4.20
2023-06-13T11:32:04.029Z,4.00
2023-06-13T11:33:04.014Z,4.30
2023-06-13T11:34:03.967Z,4.00
2023-06-13T11:35:03.918Z,4.10
2023-06-13T11:36:03.928Z,4.40
2023-06-13T11:37:03.880Z,4.20
2023-06-13T11:38:03.910Z,4.40
2023-06-13T11:39:03.872Z,4.50
2023-06-13T11:41:03.868Z,4.20
2023-06-13T11:42:03.878Z,4.40
2023-06-13T11:43:03.820Z,4.00
2023-06-13T11:44:03.854Z,4.50
2023-06-13T11:45:03.826Z,4.30
2023-06-13T11:46:03.852Z,4.10
2023-06-13T11:47:03.879Z,4.30
2023-06-13T11:48:03.945Z,4.30
2023-06-13T11:49:03.771Z,4.10
2023-06-13T11:50:03.771Z,4.20
2023-06-13T11:51:03.738Z,4.20
2023-06-13T11:52:03.757Z,3.90
2023-06-13T11:53:03.718Z,4.30
2023-06-13T11:54:03.838Z,4.00
2023-06-13T11:55:03.704Z,4.30
2023-06-13T11:56:03.705Z,4.50
2023-06-13T11:57:03.697Z,4.10
2023-06-13T11:58:03.690Z,4.00
2023-06-13T11:59:03.665Z,4.10
2023-06-13T12:00:03.708Z,4.00
2023-06-13T12:01:03.627Z,4.40
2023-06-13T12:02:03.704Z,4.10
2023-06-13T12:03:03.690Z,3.90
2023-06-13T12:04:03.674Z,4.20
2023-06-13T12:05:03.607Z,4.10
2023-06-13T12:06:03.605Z,4.10
2023-06-13T12:07:03.578Z,4.20
2023-06-13T12:08:03.616Z,4.30
2023-06-13T12:09:03.550Z,4.30
2023-06-13T12:10:03.556Z,4.10
2023-06-13T12:11:09.493Z,3.80
2023-06-13T12:12:03.546Z,4.20
2023-06-13T12:13:03.505Z,4.30
2023-06-13T12:14:03.539Z,3.90
2023-06-13T12:15:03.508Z,4.10
2023-06-13T12:16:03.501Z,4.00
2023-06-13T12:17:03.534Z,4.60
2023-06-13T12:18:03.571Z,4.50
2023-06-13T12:19:03.466Z,4.20
2023-06-13T12:20:03.464Z,4.30
2023-06-13T12:21:03.421Z,4.20
2023-06-13T12:22:03.437Z,3.90
2023-06-13T12:23:03.425Z,4.10
2023-06-13T12:24:03.531Z,4.00
2023-06-13T12:25:03.401Z,3.90
2023-06-13T12:26:03.417Z,3.80
2023-06-13T12:27:03.358Z,4.50
2023-06-13T12:28:03.375Z,5.10
2023-06-13T12:29:03.339Z,4.40
2023-06-13T12:30:03.393Z,4.00
2023-06-13T12:31:03.357Z,4.60
2023-06-13T12:32:03.343Z,4.00
2023-06-13T12:33:03.349Z,4.20
2023-06-13T12:34:03.315Z,4.20
2023-06-13T12:35:03.279Z,4.20
2023-06-13T12:36:03.310Z,4.00
2023-06-13T12:37:03.294Z,4.20
2023-06-13T12:38:03.299Z,3.90
2023-06-13T12:39:03.239Z,4.30
2023-06-13T12:40:03.257Z,4.30
2023-06-13T12:41:03.240Z,4.30
2023-06-13T12:42:03.257Z,4.30
2023-06-13T12:43:03.211Z,4.10
2023-06-13T12:44:03.243Z,4.20
2023-06-13T12:45:03.203Z,4.20
2023-06-13T12:46:03.209Z,4.40
2023-06-13T12:47:03.202Z,4.30
2023-06-13T12:48:03.217Z,4.20
2023-06-13T12:49:03.138Z,4.10
2023-06-13T12:50:03.149Z,4.10
2023-06-13T12:51:03.147Z,4.60
2023-06-13T12:52:05.460Z,4.20
2023-06-13T12:53:03.120Z,4.30
2023-06-13T12:54:03.089Z,4.30
2023-06-13T12:55:03.111Z,4.50
2023-06-13T12:56:03.090Z,4.00
2023-06-13T12:57:03.093Z,4.10
2023-06-13T12:58:03.071Z,4.30
2023-06-13T12:59:03.083Z,4.10
2023-06-13T13:00:03.026Z,4.30
2023-06-13T13:01:03.041Z,4.00
2023-06-13T13:02:03.053Z,4.40
2023-06-13T13:03:03.095Z,4.20
2023-06-13T13:04:03.031Z,4.10
2023-06-13T13:05:03.026Z,4.30
2023-06-13T13:06:02.979Z,4.30
2023-06-13T13:07:02.977Z,4.20
2023-06-13T13:08:02.979Z,4.10
2023-06-13T13:09:02.971Z,4.80
2023-06-13T13:10:02.933Z,4.60
2023-06-13T13:11:02.944Z,4.50
2023-06-13T13:12:03.041Z,4.50
2023-06-13T13:13:02.924Z,4.20
2023-06-13T13:14:02.934Z,4.20
2023-06-13T13:15:02.903Z,4.30
2023-06-13T13:16:02.886Z,4.40
2023-06-13T13:17:02.876Z,4.30
2023-06-13T13:18:02.916Z,4.70
2023-06-13T13:19:02.850Z,4.80
2023-06-13T13:20:02.835Z,4.20